Terminal Aerodrome Forecast
Issued by NWS Jackson, KY

Home | Current Version | Previous Version | Text Only | Print | Product List | Glossary On
Versions: 1 2 3 4 5 6 7 8 9 10 11 12 13 14 15 16 17 18
000
FTUS43 KJKL 022320
TAFLOZ
TAF
KLOZ 022320Z 0300/0324 22004KT P6SM VCTS FEW026CB FEW050 BKN100
     FM030300 VRB03KT 3SM BR VCSH BKN010
     FM030900 00000KT 1SM BR VCSH OVC005
     FM031300 00000KT P6SM VCSH FEW005 BKN015
     FM031500 VRB04KT 5SM SHRA VCTS SCT015CB OVC030=

USA.gov is the U.S. government's official web portal to all federal, state and local government web resources and services.